createdAt,value
2023-01-27T00:02:22.506Z,2.22
2023-01-27T00:05:26.629Z,2.23
2023-01-27T00:08:29.939Z,2.23
2023-01-27T00:11:51.609Z,2.23
2023-01-27T00:14:54.799Z,2.22
2023-01-27T00:17:58.119Z,2.22
2023-01-27T00:21:19.700Z,2.22
2023-01-27T00:24:37.966Z,2.21
2023-01-27T00:27:41.188Z,2.21
2023-01-27T00:30:44.333Z,2.21
2023-01-27T00:33:49.582Z,2.20
2023-01-27T00:36:52.771Z,2.21
2023-01-27T00:39:55.962Z,2.20
2023-01-27T00:42:59.241Z,2.19
2023-01-27T00:46:02.970Z,2.20
2023-01-27T00:49:06.344Z,2.20
2023-01-27T00:52:09.543Z,2.20
2023-01-27T00:55:16.011Z,2.20
2023-01-27T00:58:21.372Z,2.21
2023-01-27T01:01:24.615Z,2.20
2023-01-27T01:04:28.796Z,2.20
2023-01-27T01:07:32.044Z,2.20
2023-01-27T01:10:38.849Z,2.19
2023-01-27T01:13:43.337Z,2.19
2023-01-27T01:16:46.493Z,2.20
2023-01-27T01:19:49.708Z,2.18
2023-01-27T01:22:52.953Z,2.19
2023-01-27T01:25:57.517Z,2.18
2023-01-27T01:29:00.744Z,2.18
2023-01-27T01:32:04.222Z,2.17
2023-01-27T01:35:08.309Z,2.17
2023-01-27T01:38:11.988Z,2.15
2023-01-27T01:41:18.999Z,2.15
2023-01-27T01:44:32.840Z,2.14
2023-01-27T01:47:36.249Z,2.14
2023-01-27T01:50:42.961Z,2.13
2023-01-27T01:53:50.846Z,2.14
2023-01-27T01:56:58.558Z,2.13
2023-01-27T02:00:09.475Z,2.14
2023-01-27T02:03:18.700Z,2.13
2023-01-27T02:06:22.301Z,2.12
2023-01-27T02:09:28.365Z,2.11
2023-01-27T02:12:31.739Z,2.11
2023-01-27T02:15:35.577Z,2.10
2023-01-27T02:18:43.048Z,2.10
2023-01-27T02:21:49.672Z,2.09
2023-01-27T02:25:00.327Z,2.09
2023-01-27T02:28:08.475Z,2.08
2023-01-27T02:31:12.404Z,2.06
2023-01-27T02:34:20.939Z,2.06
2023-01-27T02:37:25.296Z,2.06
2023-01-27T02:40:30.335Z,2.05
2023-01-27T02:43:33.914Z,2.03
2023-01-27T02:46:37.995Z,2.02
2023-01-27T02:49:41.360Z,2.00
2023-01-27T02:52:44.649Z,1.99
2023-01-27T02:55:48.202Z,1.98
2023-01-27T02:58:51.404Z,1.97
2023-01-27T03:02:00.169Z,1.97
2023-01-27T03:05:05.143Z,1.96
2023-01-27T03:08:08.813Z,1.95
2023-01-27T03:11:12.479Z,1.93
2023-01-27T03:14:15.794Z,1.92
2023-01-27T03:17:37.807Z,1.92
2023-01-27T03:20:42.185Z,1.91
2023-01-27T03:23:49.097Z,1.90
2023-01-27T03:26:55.722Z,1.90
2023-01-27T03:30:07.018Z,1.89
2023-01-27T03:33:10.825Z,1.88
2023-01-27T03:36:58.170Z,1.87
2023-01-27T03:40:19.839Z,1.86
2023-01-27T03:43:41.559Z,1.83
2023-01-27T03:46:45.026Z,1.83
2023-01-27T03:49:48.197Z,1.82
2023-01-27T03:53:03.654Z,1.81
2023-01-27T03:56:07.286Z,1.81
2023-01-27T03:59:10.451Z,1.81
2023-01-27T04:02:32.035Z,1.81
2023-01-27T04:05:53.743Z,1.80
2023-01-27T04:08:57.456Z,1.81
2023-01-27T04:12:04.578Z,1.81
2023-01-27T04:15:08.684Z,1.81
2023-01-27T04:18:12.113Z,1.80
2023-01-27T04:21:15.338Z,1.80
2023-01-27T04:24:24.478Z,1.79
2023-01-27T04:27:27.839Z,1.79
2023-01-27T04:30:31.111Z,1.78
2023-01-27T04:33:34.338Z,1.78
2023-01-27T04:36:37.654Z,1.77
2023-01-27T04:39:41.859Z,1.78
2023-01-27T04:42:45.123Z,1.77
2023-01-27T04:45:51.042Z,1.77
2023-01-27T04:48:54.360Z,1.78
2023-01-27T04:51:57.541Z,1.77
2023-01-27T04:55:00.720Z,1.76
2023-01-27T04:58:05.077Z,1.76
2023-01-27T05:01:08.198Z,1.76
2023-01-27T05:04:11.377Z,1.75
2023-01-27T05:07:14.775Z,1.75
2023-01-27T05:10:18.233Z,1.75
2023-01-27T05:13:21.519Z,1.75
2023-01-27T05:16:25.590Z,1.75
2023-01-27T05:19:29.117Z,1.74
2023-01-27T05:22:32.283Z,1.75
2023-01-27T05:25:35.517Z,1.73
2023-01-27T05:28:41.582Z,1.73
2023-01-27T05:31:44.949Z,1.72
2023-01-27T05:34:48.177Z,1.72
2023-01-27T05:37:51.379Z,1.72
2023-01-27T05:41:04.105Z,1.71
2023-01-27T05:44:07.363Z,1.70
2023-01-27T05:47:10.581Z,1.69
2023-01-27T05:50:13.831Z,1.68
2023-01-27T05:53:18.661Z,1.67
2023-01-27T05:56:23.322Z,1.66
2023-01-27T05:59:26.565Z,1.65
2023-01-27T06:02:29.821Z,1.63
2023-01-27T06:05:33.130Z,1.62
2023-01-27T06:08:38.001Z,1.61
2023-01-27T06:11:41.212Z,1.59
2023-01-27T06:14:44.437Z,1.58
2023-01-27T06:17:47.647Z,1.56
2023-01-27T06:20:51.102Z,1.54
2023-01-27T06:23:54.438Z,1.54
2023-01-27T06:26:57.638Z,1.53
2023-01-27T06:30:00.874Z,1.52
2023-01-27T06:33:05.039Z,1.52
2023-01-27T06:36:10.795Z,1.52
2023-01-27T06:39:14.061Z,1.52
2023-01-27T06:42:17.297Z,1.51
2023-01-27T06:45:20.583Z,1.51
2023-01-27T06:48:24.399Z,1.51
2023-01-27T06:51:27.634Z,1.51
2023-01-27T06:54:30.923Z,1.51
2023-01-27T06:57:34.797Z,1.51
2023-01-27T07:00:39.667Z,1.51
2023-01-27T07:03:44.776Z,1.50
2023-01-27T07:06:48.369Z,1.51
2023-01-27T07:09:52.964Z,1.51
2023-01-27T07:13:07.076Z,1.51
2023-01-27T07:16:10.300Z,1.51
2023-01-27T07:19:13.725Z,1.51
2023-01-27T07:22:16.889Z,1.51
2023-01-27T07:25:20.335Z,1.52
2023-01-27T07:28:24.006Z,1.52
2023-01-27T07:31:27.788Z,1.54
2023-01-27T07:34:31.045Z,1.54
2023-01-27T07:37:35.622Z,1.55
2023-01-27T07:40:40.882Z,1.56
2023-01-27T07:43:44.157Z,1.57
2023-01-27T07:46:47.461Z,1.58
2023-01-27T07:49:50.614Z,1.59
2023-01-27T07:52:53.926Z,1.60
2023-01-27T07:55:59.975Z,1.61
2023-01-27T07:59:04.520Z,1.63
2023-01-27T08:02:10.431Z,1.64
2023-01-27T08:05:13.751Z,1.65
2023-01-27T08:08:19.047Z,1.67
2023-01-27T08:11:22.383Z,1.68
2023-01-27T08:14:25.698Z,1.68
2023-01-27T08:17:29.952Z,1.70
2023-01-27T08:20:33.339Z,1.72
2023-01-27T08:23:37.037Z,1.74
2023-01-27T08:26:40.377Z,1.76
2023-01-27T08:29:43.899Z,1.78
2023-01-27T08:32:49.299Z,1.80
2023-01-27T08:35:52.651Z,1.81
2023-01-27T08:38:56.978Z,1.83
2023-01-27T08:42:00.674Z,1.84
2023-01-27T08:45:04.260Z,1.85
2023-01-27T08:48:07.591Z,1.87
2023-01-27T08:51:13.873Z,1.87
2023-01-27T08:54:17.140Z,1.88
2023-01-27T08:57:20.521Z,1.87
2023-01-27T09:00:24.355Z,1.87
2023-01-27T09:03:28.182Z,1.88
2023-01-27T09:06:31.574Z,1.89
2023-01-27T09:09:35.145Z,1.90
2023-01-27T09:12:38.602Z,1.90
2023-01-27T09:15:45.125Z,1.89
2023-01-27T09:18:49.631Z,1.87
2023-01-27T09:21:52.937Z,1.86
2023-01-27T09:24:56.309Z,1.84
2023-01-27T09:28:00.495Z,1.84
2023-01-27T09:31:05.553Z,1.83
2023-01-27T09:34:08.938Z,1.83
2023-01-27T09:37:14.158Z,1.83
2023-01-27T09:40:43.960Z,1.83
2023-01-27T09:44:02.570Z,1.83
2023-01-27T09:47:19.905Z,1.84
2023-01-27T09:50:47.198Z,1.85
2023-01-27T09:54:15.269Z,1.85
2023-01-27T09:57:26.693Z,1.86
2023-01-27T10:00:48.469Z,1.85
2023-01-27T10:04:13.041Z,1.86
2023-01-27T10:07:38.204Z,1.85
2023-01-27T10:10:50.308Z,1.84
2023-01-27T10:14:19.713Z,1.83
2023-01-27T10:17:44.762Z,1.83
2023-01-27T10:21:01.120Z,1.83
2023-01-27T10:24:59.687Z,1.82
2023-01-27T10:28:17.371Z,1.81
2023-01-27T10:31:36.039Z,1.81
2023-01-27T10:34:51.321Z,1.81
2023-01-27T10:38:20.430Z,1.80
2023-01-27T10:41:57.267Z,1.81
2023-01-27T10:45:21.402Z,1.83
2023-01-27T10:48:39.717Z,1.86
2023-01-27T10:51:50.239Z,1.91
2023-01-27T10:55:15.374Z,1.94
2023-01-27T10:58:55.329Z,1.97
2023-01-27T11:02:14.643Z,1.99
2023-01-27T11:05:30.564Z,2.03
2023-01-27T11:08:39.714Z,2.06
2023-01-27T11:11:46.008Z,2.08
2023-01-27T11:14:52.347Z,2.11
2023-01-27T11:17:59.796Z,2.14
2023-01-27T11:21:06.363Z,2.17
2023-01-27T11:24:24.083Z,2.19
2023-01-27T11:27:45.873Z,2.22
2023-01-27T11:30:59.107Z,2.23
2023-01-27T11:34:22.993Z,2.24
2023-01-27T11:37:32.424Z,2.25
2023-01-27T11:40:38.563Z,2.26
2023-01-27T11:43:42.414Z,2.25
2023-01-27T11:46:48.970Z,2.27
2023-01-27T11:49:54.120Z,2.27
2023-01-27T11:53:22.369Z,2.28
2023-01-27T11:56:27.122Z,2.27
2023-01-27T11:59:36.506Z,2.28
2023-01-27T12:02:46.290Z,2.27
2023-01-27T12:05:55.941Z,2.27
2023-01-27T12:09:00.017Z,2.27
2023-01-27T12:12:15.825Z,2.27
2023-01-27T12:15:21.116Z,2.28
2023-01-27T12:18:24.824Z,2.28
2023-01-27T12:21:48.209Z,2.29
2023-01-27T12:24:56.040Z,2.30
2023-01-27T12:28:03.187Z,2.32
2023-01-27T12:31:24.864Z,2.34
2023-01-27T12:34:56.551Z,2.37
2023-01-27T12:38:11.645Z,2.42
2023-01-27T12:41:40.476Z,2.45
2023-01-27T12:44:50.320Z,2.49
2023-01-27T12:48:01.547Z,2.51
2023-01-27T12:51:17.137Z,2.54
2023-01-27T12:54:30.271Z,2.56
2023-01-27T12:57:33.776Z,2.57
2023-01-27T13:00:39.138Z,2.59
2023-01-27T13:03:42.899Z,2.59
2023-01-27T13:06:58.710Z,2.60
2023-01-27T13:10:16.000Z,2.61
2023-01-27T13:13:29.196Z,2.59
2023-01-27T13:16:32.788Z,2.59
2023-01-27T13:19:47.090Z,2.59
2023-01-27T13:22:58.193Z,2.58
2023-01-27T13:26:04.241Z,2.57
2023-01-27T13:29:10.945Z,2.56
2023-01-27T13:32:32.363Z,2.56
2023-01-27T13:35:41.951Z,2.53
2023-01-27T13:39:05.879Z,2.51
2023-01-27T13:42:29.294Z,2.49
2023-01-27T13:45:53.435Z,2.48
2023-01-27T13:49:05.196Z,2.47
2023-01-27T13:52:11.212Z,2.47
2023-01-27T13:55:15.287Z,2.46
2023-01-27T13:58:36.750Z,2.46
2023-01-27T14:01:58.696Z,2.45
2023-01-27T14:05:02.560Z,2.44
2023-01-27T14:08:30.614Z,2.43
2023-01-27T14:11:55.600Z,2.42
2023-01-27T14:15:21.866Z,2.42
2023-01-27T14:18:30.989Z,2.41
2023-01-27T14:21:53.306Z,2.41
2023-01-27T14:25:42.051Z,2.41
2023-01-27T14:29:06.157Z,2.41
2023-01-27T14:32:18.205Z,2.41
2023-01-27T14:35:30.495Z,2.41
2023-01-27T14:38:55.700Z,2.40
2023-01-27T14:42:11.444Z,2.41
2023-01-27T14:45:35.919Z,2.39
2023-01-27T14:48:39.176Z,2.39
2023-01-27T14:51:51.450Z,2.36
2023-01-27T14:55:06.805Z,2.34
2023-01-27T14:58:48.678Z,2.32
2023-01-27T15:02:08.617Z,2.31
2023-01-27T15:05:22.469Z,2.30
2023-01-27T15:08:31.541Z,2.30
2023-01-27T15:12:01.109Z,2.29
2023-01-27T15:15:16.643Z,2.26
2023-01-27T15:18:54.640Z,2.24
2023-01-27T15:22:11.978Z,2.23
2023-01-27T15:25:19.695Z,2.21
2023-01-27T15:28:29.272Z,2.18
2023-01-27T15:31:33.476Z,2.17
2023-01-27T15:34:36.827Z,2.16
2023-01-27T15:37:55.781Z,2.15
2023-01-27T15:41:07.989Z,2.16
2023-01-27T15:44:18.829Z,2.15
2023-01-27T15:47:27.675Z,2.14
2023-01-27T15:50:33.166Z,2.14
2023-01-27T15:53:42.171Z,2.13
2023-01-27T15:56:53.660Z,2.13
2023-01-27T16:00:07.455Z,2.12
2023-01-27T16:03:33.559Z,2.13
2023-01-27T16:06:46.868Z,2.12
2023-01-27T16:09:52.200Z,2.11
2023-01-27T16:13:23.248Z,2.12
2023-01-27T16:16:35.236Z,2.12
2023-01-27T16:19:52.544Z,2.12
2023-01-27T16:23:11.483Z,2.12
2023-01-27T16:26:32.936Z,2.12
2023-01-27T16:29:45.314Z,2.13
2023-01-27T16:33:04.277Z,2.14
2023-01-27T16:36:13.464Z,2.13
2023-01-27T16:39:58.995Z,2.13
2023-01-27T16:43:08.351Z,2.13
2023-01-27T16:46:37.162Z,2.13
2023-01-27T16:49:42.057Z,2.13
2023-01-27T16:52:45.991Z,2.13
2023-01-27T16:56:07.892Z,2.13
2023-01-27T16:59:21.877Z,2.13
2023-01-27T17:02:28.200Z,2.12
2023-01-27T17:05:31.562Z,2.12
2023-01-27T17:08:46.843Z,2.11
2023-01-27T17:11:50.457Z,2.11
2023-01-27T17:14:54.091Z,2.11
2023-01-27T17:17:58.165Z,2.10
2023-01-27T17:21:02.203Z,2.09
2023-01-27T17:24:36.948Z,2.08
2023-01-27T17:27:43.587Z,2.06
2023-01-27T17:30:48.141Z,2.06
2023-01-27T17:33:59.857Z,2.06
2023-01-27T17:37:32.203Z,2.05
2023-01-27T17:40:39.851Z,2.05
2023-01-27T17:43:44.670Z,2.05
2023-01-27T17:46:47.940Z,2.04
2023-01-27T17:49:51.618Z,2.04
2023-01-27T17:52:57.189Z,2.02
2023-01-27T17:56:10.177Z,2.00
2023-01-27T17:59:20.134Z,1.98
2023-01-27T18:02:30.442Z,1.97
2023-01-27T18:05:34.246Z,1.96
2023-01-27T18:08:37.848Z,1.96
2023-01-27T18:11:51.919Z,1.96
2023-01-27T18:14:55.180Z,1.96
2023-01-27T18:18:00.480Z,1.96
2023-01-27T18:21:08.404Z,1.95
2023-01-27T18:24:20.799Z,1.95
2023-01-27T18:27:27.430Z,1.93
2023-01-27T18:30:31.119Z,1.93
2023-01-27T18:33:34.369Z,1.92
2023-01-27T18:36:39.114Z,1.92
2023-01-27T18:39:42.452Z,1.90
2023-01-27T18:42:52.059Z,1.90
2023-01-27T18:45:55.595Z,1.90
2023-01-27T18:49:00.015Z,1.90
2023-01-27T18:52:19.320Z,1.89
2023-01-27T18:55:28.083Z,1.90
2023-01-27T18:58:31.315Z,1.90
2023-01-27T19:01:36.231Z,1.90
2023-01-27T19:04:39.765Z,1.90
2023-01-27T19:07:43.198Z,1.89
2023-01-27T19:10:47.795Z,1.90
2023-01-27T19:13:51.202Z,1.90
2023-01-27T19:16:54.708Z,1.89
2023-01-27T19:19:58.170Z,1.90
2023-01-27T19:23:01.526Z,1.91
2023-01-27T19:26:10.094Z,1.91
2023-01-27T19:29:14.434Z,1.92
2023-01-27T19:32:17.772Z,1.93
2023-01-27T19:35:25.691Z,1.93
2023-01-27T19:38:29.957Z,1.93
2023-01-27T19:41:34.283Z,1.94
2023-01-27T19:44:37.428Z,1.94
2023-01-27T19:47:44.036Z,1.95
2023-01-27T19:50:47.564Z,1.94
2023-01-27T19:53:50.771Z,1.95
2023-01-27T19:56:54.400Z,1.94
2023-01-27T19:59:57.723Z,1.94
2023-01-27T20:03:01.949Z,1.94
2023-01-27T20:06:14.508Z,1.94
2023-01-27T20:09:17.828Z,1.95
2023-01-27T20:12:21.110Z,1.95
2023-01-27T20:15:27.151Z,1.95
2023-01-27T20:18:31.313Z,1.95
2023-01-27T20:21:34.728Z,1.95
2023-01-27T20:24:38.126Z,1.93
2023-01-27T20:27:42.621Z,1.92
2023-01-27T20:30:45.996Z,1.92
2023-01-27T20:33:52.936Z,1.92
2023-01-27T20:36:56.642Z,1.92
2023-01-27T20:40:00.041Z,1.92
2023-01-27T20:43:03.565Z,1.92
2023-01-27T20:46:11.809Z,1.92
2023-01-27T20:49:15.147Z,1.93
2023-01-27T20:52:18.530Z,1.94
2023-01-27T20:55:22.501Z,1.94
2023-01-27T20:58:27.058Z,1.94
2023-01-27T21:01:30.608Z,1.95
2023-01-27T21:04:34.017Z,1.95
2023-01-27T21:07:37.378Z,1.94
2023-01-27T21:10:40.700Z,1.95
2023-01-27T21:13:44.608Z,1.94
2023-01-27T21:16:48.236Z,1.94
2023-01-27T21:19:51.583Z,1.93
2023-01-27T21:22:55.176Z,1.92
2023-01-27T21:26:09.255Z,1.91
2023-01-27T21:29:12.764Z,1.91
2023-01-27T21:32:16.263Z,1.91
2023-01-27T21:35:19.671Z,1.90
2023-01-27T21:38:23.034Z,1.89
2023-01-27T21:41:45.365Z,1.88
2023-01-27T21:45:07.421Z,1.88
2023-01-27T21:48:11.719Z,1.87
2023-01-27T21:51:15.314Z,1.87
2023-01-27T21:54:18.576Z,1.86
2023-01-27T21:57:21.867Z,1.86
2023-01-27T22:00:27.835Z,1.85
2023-01-27T22:03:31.277Z,1.85
2023-01-27T22:06:34.738Z,1.84
2023-01-27T22:09:38.923Z,1.83
2023-01-27T22:12:42.651Z,1.83
2023-01-27T22:15:51.953Z,1.83
2023-01-27T22:18:55.312Z,1.83
2023-01-27T22:21:58.614Z,1.82
2023-01-27T22:25:02.114Z,1.82
2023-01-27T22:28:05.559Z,1.81
2023-01-27T22:31:08.912Z,1.81
2023-01-27T22:34:12.344Z,1.80
2023-01-27T22:37:15.638Z,1.80
2023-01-27T22:40:18.944Z,1.79
2023-01-27T22:43:22.229Z,1.79
2023-01-27T22:46:25.880Z,1.79
2023-01-27T22:49:29.173Z,1.78
2023-01-27T22:52:36.698Z,1.78
2023-01-27T22:55:40.271Z,1.78
2023-01-27T22:58:43.511Z,1.79
2023-01-27T23:01:46.877Z,1.78
2023-01-27T23:04:50.214Z,1.79
2023-01-27T23:07:53.631Z,1.79
2023-01-27T23:11:01.507Z,1.79
2023-01-27T23:14:04.873Z,1.80
2023-01-27T23:17:08.374Z,1.79
2023-01-27T23:20:12.266Z,1.80
2023-01-27T23:23:16.295Z,1.80
2023-01-27T23:26:19.752Z,1.79
2023-01-27T23:29:25.308Z,1.80
2023-01-27T23:32:29.147Z,1.80
2023-01-27T23:35:32.395Z,1.80
2023-01-27T23:38:36.932Z,1.81
2023-01-27T23:41:40.374Z,1.81
2023-01-27T23:44:43.719Z,1.80
2023-01-27T23:47:46.952Z,1.80
2023-01-27T23:50:50.688Z,1.80
2023-01-27T23:53:54.081Z,1.80
2023-01-27T23:56:57.298Z,1.79
